If you wish to contribute or participate in the discussions about articles you are invited to join SKYbrary as a registered user

 Actions

Reus Airport

From SKYbrary Wiki

LERS
Airport
ICAO: LERS – IATA: REU
Summary
Name Reus Airport
Region Europe
Territory Spain ES.gif
Location Reus, Catalonia
Serving Reus
Elevation 71.018 m
233 ft
233 ft71.018 m
Type medium airport
Coordinates 41° 8' 50.61" N, 1° 10' 1.82" E
Runways
Designator Length Width Surface ROPS
7/25 2455 m8,054.462 ft
45 m147.638 ft
ASP yes/yes
12/30 950 m3,116.798 ft
35 m114.829 ft
GRE /


METAR
Observation LERS 181000Z 16004KT 100V230 CAVOK 23/12 Q1015
Station Reus / Aeropuerto
Date/Time 18 October 2019 10:00:00
Wind direction 160°
Wind speed 04 kts
Lowest cloud amount clouds and visibility OK
Temperature 23°C
Dew point 12°C
Humidity 49%
QNH 1015 hPa
Weather condition n/a

Maps

Terrain

Loading map...

Airport Layout

Loading map...


Accidents & Serious Incidents at or in vicinity of LERS

None on SKYbrary